Time;durP1;ratioP1;P1;durP2;ratioP2;P2;SDS_P1;SDS_P2;PMS_P1;PMS_P2;Temp;Humidity;BMP_temperature;BMP_pressure;BME280_temperature;BME280_humidity;BME280_pressure;Samples;Min_cycle;Max_cycle;Signal;HPM_P1;HPM_P2
2021/08/25 00:00:34;;;;;;;9.70;4.90;;;15.70;79.90;;;;;;5092375;28;20089;-78
2021/08/25 00:02:59;;;;;;;9.60;4.47;;;15.70;80.30;;;;;;5091437;28;20035;-79
2021/08/25 00:05:25;;;;;;;8.23;4.10;;;15.70;79.90;;;;;;5092957;28;20027;-79
2021/08/25 00:07:51;;;;;;;7.53;3.78;;;15.60;80.10;;;;;;5093118;28;20020;-78
2021/08/25 00:10:16;;;;;;;5.85;3.05;;;15.60;80.00;;;;;;5093023;28;20527;-78
2021/08/25 00:12:42;;;;;;;9.50;4.63;;;15.60;80.40;;;;;;5096529;28;20376;-78
2021/08/25 00:15:09;;;;;;;8.70;3.88;;;15.60;79.10;;;;;;5105388;28;20146;-79
2021/08/25 00:17:35;;;;;;;6.95;3.50;;;15.60;80.10;;;;;;5100208;28;20024;-78
2021/08/25 00:20:00;;;;;;;10.88;4.95;;;15.60;81.00;;;;;;5101549;28;20028;-77
2021/08/25 00:22:26;;;;;;;9.05;4.07;;;15.50;79.50;;;;;;5093956;28;20103;-77
2021/08/25 00:24:53;;;;;;;11.13;5.25;;;15.50;80.20;;;;;;5094064;28;20062;-77
2021/08/25 00:27:18;;;;;;;9.77;5.28;;;15.50;79.40;;;;;;5098695;28;20081;-77
2021/08/25 00:29:44;;;;;;;8.52;4.53;;;15.50;79.30;;;;;;5098472;28;20020;-77
2021/08/25 00:32:10;;;;;;;10.52;5.80;;;15.50;79.00;;;;;;5099237;28;20024;-78
2021/08/25 00:34:35;;;;;;;6.70;3.28;;;15.50;78.60;;;;;;5098555;28;20024;-77
2021/08/25 00:37:01;;;;;;;7.63;3.55;;;15.50;80.50;;;;;;5098306;28;20038;-78
2021/08/25 00:39:26;;;;;;;8.43;3.63;;;15.40;81.10;;;;;;5099406;28;20021;-77
2021/08/25 00:41:52;;;;;;;7.63;2.75;;;15.40;81.40;;;;;;5098567;28;20069;-78
2021/08/25 00:44:18;;;;;;;12.75;6.53;;;15.40;82.40;;;;;;5100235;28;20391;-78
2021/08/25 00:46:45;;;;;;;10.27;5.47;;;15.40;81.80;;;;;;5099769;28;20111;-78
2021/08/25 00:49:13;;;;;;;7.30;3.80;;;15.40;80.40;;;;;;5098543;28;20028;-78
2021/08/25 00:51:38;;;;;;;13.63;6.15;;;15.40;81.10;;;;;;5098066;28;20031;-77
2021/08/25 00:54:04;;;;;;;8.07;4.05;;;15.40;80.80;;;;;;5098159;28;20028;-77
2021/08/25 00:56:31;;;;;;;8.25;4.43;;;15.40;81.30;;;;;;5105927;28;20024;-78
2021/08/25 00:58:57;;;;;;;5.68;2.63;;;15.30;81.00;;;;;;5099345;28;20087;-77
2021/08/25 01:02:01;;;;;;;9.30;5.03;;;15.40;82.30;;;;;;5104028;28;20048;-77
2021/08/25 01:04:52;;;;;;;10.25;5.47;;;15.40;82.20;;;;;;5099097;28;20127;-78
2021/08/25 01:07:19;;;;;;;7.32;3.55;;;15.30;81.90;;;;;;5099156;28;20024;-78
2021/08/25 01:09:44;;;;;;;10.65;5.78;;;15.30;82.40;;;;;;5098393;28;20016;-77
2021/08/25 01:12:10;;;;;;;7.65;4.65;;;15.30;81.60;;;;;;5098288;28;20114;-78
2021/08/25 01:14:38;;;;;;;7.47;4.38;;;15.30;81.90;;;;;;5099506;28;20115;-78
2021/08/25 01:17:04;;;;;;;8.25;4.35;;;15.20;82.10;;;;;;5102947;28;20020;-77
2021/08/25 01:19:35;;;;;;;7.50;4.13;;;15.20;82.30;;;;;;5104726;28;20032;-75
2021/08/25 01:22:01;;;;;;;9.13;5.38;;;15.20;81.80;;;;;;5101932;28;20162;-77
2021/08/25 01:24:27;;;;;;;11.82;6.10;;;15.20;81.10;;;;;;5098441;28;20193;-77
2021/08/25 01:26:53;;;;;;;8.98;5.63;;;15.20;80.90;;;;;;5099479;28;20046;-77
2021/08/25 01:29:24;;;;;;;9.60;5.40;;;15.10;81.30;;;;;;5099554;28;20020;-78
2021/08/25 01:31:51;;;;;;;9.93;5.50;;;15.20;81.00;;;;;;5097865;28;20087;-77
2021/08/25 01:34:16;;;;;;;7.47;4.30;;;15.10;80.60;;;;;;5106942;28;20008;-78
2021/08/25 01:36:42;;;;;;;10.95;5.63;;;15.10;81.10;;;;;;5104620;28;20031;-77
2021/08/25 01:39:08;;;;;;;10.70;5.50;;;15.10;80.90;;;;;;5095493;28;20546;-77
2021/08/25 01:41:34;;;;;;;9.55;4.57;;;15.10;80.80;;;;;;5095610;28;20020;-77
2021/08/25 01:44:03;;;;;;;9.23;5.65;;;15.00;81.20;;;;;;5093987;28;20119;-77
2021/08/25 01:46:39;;;;;;;8.00;4.53;;;15.00;81.40;;;;;;5093992;28;20062;-77
2021/08/25 01:49:07;;;;;;;11.30;5.82;;;15.00;81.90;;;;;;5093680;28;20438;-78
2021/08/25 01:51:33;;;;;;;8.50;5.15;;;15.00;81.40;;;;;;5093940;28;20065;-78
2021/08/25 01:54:00;;;;;;;10.35;5.32;;;15.00;81.70;;;;;;5094236;28;20028;-78
2021/08/25 01:56:26;;;;;;;10.60;5.72;;;15.00;81.50;;;;;;5094554;28;20046;-78
2021/08/25 01:58:53;;;;;;;10.45;5.25;;;14.90;82.30;;;;;;5100241;28;20547;-77
2021/08/25 02:01:18;;;;;;;11.57;5.25;;;15.00;82.00;;;;;;5103338;28;20054;-78
2021/08/25 02:03:44;;;;;;;11.40;6.80;;;15.00;82.00;;;;;;5096557;28;20028;-79
2021/08/25 02:06:09;;;;;;;11.00;6.45;;;14.90;81.80;;;;;;5096100;28;20536;-78
2021/08/25 02:08:35;;;;;;;11.25;5.93;;;14.90;81.80;;;;;;5098741;28;20024;-77
2021/08/25 02:11:01;;;;;;;8.15;4.28;;;14.90;82.30;;;;;;5108342;28;20133;-78
2021/08/25 02:13:27;;;;;;;9.13;4.95;;;14.90;82.70;;;;;;5109390;28;20464;-78
2021/08/25 02:15:53;;;;;;;9.80;4.70;;;14.90;83.60;;;;;;5097345;28;20012;-77
2021/08/25 02:18:18;;;;;;;11.40;5.53;;;14.90;83.00;;;;;;5093890;28;20384;-79
2021/08/25 02:20:44;;;;;;;8.10;4.13;;;14.90;82.90;;;;;;5095042;28;20068;-77
2021/08/25 02:23:10;;;;;;;13.25;6.68;;;14.90;82.80;;;;;;5094571;28;20024;-78
2021/08/25 02:25:36;;;;;;;9.25;5.13;;;14.90;82.60;;;;;;5093120;28;20024;-77
2021/08/25 02:28:01;;;;;;;12.35;6.60;;;14.80;81.90;;;;;;5094681;28;20031;-78
2021/08/25 02:30:27;;;;;;;11.25;6.38;;;14.80;82.20;;;;;;5094724;28;20353;-78
2021/08/25 02:32:53;;;;;;;9.52;4.75;;;14.80;82.50;;;;;;5094765;28;20024;-78
2021/08/25 02:35:19;;;;;;;9.45;5.60;;;14.80;82.50;;;;;;5093225;28;20115;-79
2021/08/25 02:37:44;;;;;;;10.63;6.15;;;14.80;82.30;;;;;;5095349;28;20147;-78
2021/08/25 02:40:11;;;;;;;10.20;5.47;;;14.80;82.20;;;;;;5093077;28;20026;-78
2021/08/25 02:42:38;;;;;;;11.27;6.47;;;14.70;82.00;;;;;;5093178;28;20069;-78
2021/08/25 02:45:04;;;;;;;11.65;5.80;;;14.70;81.90;;;;;;5094493;28;20035;-78
2021/08/25 02:47:30;;;;;;;10.70;5.70;;;14.70;81.70;;;;;;5093952;28;20031;-78
2021/08/25 02:49:56;;;;;;;10.35;5.55;;;14.70;81.50;;;;;;5093557;28;20024;-78
2021/08/25 02:52:21;;;;;;;9.70;5.70;;;14.70;81.90;;;;;;5093007;28;20024;-78
2021/08/25 02:54:47;;;;;;;10.20;5.75;;;14.70;81.70;;;;;;5095081;28;20051;-77
2021/08/25 02:57:13;;;;;;;11.15;6.45;;;14.60;81.90;;;;;;5093360;28;20032;-78
2021/08/25 02:59:38;;;;;;;9.90;5.38;;;14.60;82.70;;;;;;5093456;28;20069;-78
2021/08/25 03:02:04;;;;;;;10.43;5.88;;;14.60;82.30;;;;;;5095541;28;20039;-77
2021/08/25 03:04:29;;;;;;;14.57;6.10;;;14.60;82.20;;;;;;5097004;28;20024;-77
2021/08/25 03:06:55;;;;;;;10.13;5.60;;;14.60;82.00;;;;;;5098005;28;20028;-76
2021/08/25 03:09:21;;;;;;;8.77;4.93;;;14.60;81.80;;;;;;5099601;28;20024;-76
2021/08/25 03:11:47;;;;;;;9.95;6.03;;;14.50;81.60;;;;;;5098581;28;20026;-79
2021/08/25 03:14:13;;;;;;;11.55;5.97;;;14.60;81.20;;;;;;5093582;28;20064;-77
2021/08/25 03:16:39;;;;;;;9.52;5.72;;;14.60;81.40;;;;;;5093840;28;20028;-77
2021/08/25 03:19:04;;;;;;;10.02;5.60;;;14.60;82.00;;;;;;5093634;28;20051;-77
2021/08/25 03:21:30;;;;;;;10.35;5.90;;;14.50;81.50;;;;;;5092347;28;20123;-77
2021/08/25 03:23:56;;;;;;;13.98;6.53;;;14.60;81.60;;;;;;5092456;28;20054;-77
2021/08/25 03:26:21;;;;;;;10.02;5.85;;;14.50;81.50;;;;;;5093609;28;20028;-78
2021/08/25 03:28:47;;;;;;;10.70;6.03;;;14.50;81.40;;;;;;5092329;28;20073;-78
2021/08/25 03:31:12;;;;;;;13.13;5.88;;;14.50;81.30;;;;;;5093355;28;20054;-77
2021/08/25 03:33:38;;;;;;;13.75;6.57;;;14.50;81.60;;;;;;5092461;28;20058;-79
2021/08/25 03:36:04;;;;;;;11.50;6.15;;;14.40;81.80;;;;;;5092658;28;20385;-78
2021/08/25 03:38:30;;;;;;;11.82;6.28;;;14.40;81.80;;;;;;5094352;28;20055;-77
2021/08/25 03:40:55;;;;;;;11.90;6.68;;;14.40;82.00;;;;;;5106661;28;20093;-76
2021/08/25 03:43:21;;;;;;;11.40;6.78;;;14.40;82.20;;;;;;5103976;28;20047;-79
2021/08/25 03:45:47;;;;;;;12.20;6.97;;;14.30;82.30;;;;;;5091850;28;20350;-78
2021/08/25 03:48:12;;;;;;;9.38;5.97;;;14.30;82.40;;;;;;5091688;28;20126;-78
2021/08/25 03:50:38;;;;;;;12.40;6.55;;;14.30;82.40;;;;;;5093133;28;20024;-77
2021/08/25 03:53:03;;;;;;;11.98;6.25;;;14.20;82.40;;;;;;5091766;28;20030;-78
2021/08/25 03:55:29;;;;;;;11.63;6.30;;;14.20;82.70;;;;;;5092826;28;20027;-77
2021/08/25 03:57:55;;;;;;;11.60;7.03;;;14.20;82.80;;;;;;5092999;28;20031;-77
2021/08/25 04:00:22;;;;;;;13.23;6.95;;;14.20;82.90;;;;;;5092628;28;20024;-78
2021/08/25 04:02:48;;;;;;;11.27;6.50;;;14.20;83.00;;;;;;5091791;28;20069;-78
2021/08/25 04:05:14;;;;;;;11.35;6.00;;;14.20;83.30;;;;;;5099350;28;20028;-78
2021/08/25 04:07:39;;;;;;;15.10;6.65;;;14.10;83.20;;;;;;5103733;28;20024;-77
2021/08/25 04:10:05;;;;;;;11.60;6.97;;;14.10;83.30;;;;;;5099452;28;20089;-77
2021/08/25 04:12:31;;;;;;;12.48;6.60;;;14.10;83.40;;;;;;5101487;28;20421;-76
2021/08/25 04:14:56;;;;;;;12.63;7.20;;;14.10;83.90;;;;;;5091752;28;20061;-77
2021/08/25 04:17:22;;;;;;;13.40;7.18;;;14.10;83.70;;;;;;5092916;28;20102;-76
2021/08/25 04:19:48;;;;;;;12.15;7.63;;;14.00;83.60;;;;;;5092545;28;20032;-78
2021/08/25 04:22:14;;;;;;;11.48;6.18;;;14.00;83.90;;;;;;5091241;28;20036;-77
2021/08/25 04:24:39;;;;;;;11.52;6.45;;;14.00;84.00;;;;;;5092736;28;20107;-78
2021/08/25 04:27:05;;;;;;;11.55;6.63;;;14.00;84.00;;;;;;5091424;28;20036;-77
2021/08/25 04:29:31;;;;;;;13.55;8.23;;;13.90;84.10;;;;;;5091287;28;20107;-77
2021/08/25 04:31:57;;;;;;;11.52;6.80;;;13.90;84.30;;;;;;5091319;28;20024;-78
2021/08/25 04:34:22;;;;;;;11.55;6.38;;;13.90;84.20;;;;;;5091307;28;20052;-78
2021/08/25 04:36:48;;;;;;;11.05;6.00;;;13.90;84.30;;;;;;5092425;28;20028;-78
2021/08/25 04:39:14;;;;;;;10.80;6.50;;;13.90;84.50;;;;;;5092618;28;20032;-78
2021/08/25 04:41:39;;;;;;;10.45;6.47;;;13.90;84.50;;;;;;5098952;28;20027;-78
2021/08/25 04:44:05;;;;;;;11.30;6.50;;;13.80;84.70;;;;;;5099149;28;20074;-77
2021/08/25 04:46:31;;;;;;;12.52;6.95;;;13.80;84.80;;;;;;5091934;28;20028;-77
2021/08/25 04:48:57;;;;;;;15.18;7.78;;;13.90;84.90;;;;;;5091717;28;20528;-76
2021/08/25 04:51:23;;;;;;;13.05;7.38;;;13.80;84.80;;;;;;5091680;28;20024;-77
2021/08/25 04:53:49;;;;;;;10.55;6.63;;;13.80;85.10;;;;;;5091707;28;20414;-77
2021/08/25 04:56:14;;;;;;;12.00;6.60;;;13.90;85.40;;;;;;5094431;28;20043;-77
2021/08/25 04:58:40;;;;;;;13.20;6.78;;;13.80;85.90;;;;;;5096815;28;20043;-76
2021/08/25 05:01:07;;;;;;;12.27;6.90;;;13.90;85.20;;;;;;5095584;28;20114;-78
2021/08/25 05:03:34;;;;;;;11.15;6.60;;;13.90;85.30;;;;;;5094570;28;20028;-78
2021/08/25 05:06:06;;;;;;;13.98;6.70;;;13.90;85.60;;;;;;5093799;28;20077;-77
2021/08/25 05:08:32;;;;;;;11.10;6.80;;;13.90;85.50;;;;;;5092854;28;20467;-77
2021/08/25 05:10:57;;;;;;;11.38;6.50;;;13.90;85.50;;;;;;5092389;28;20067;-77
2021/08/25 05:13:23;;;;;;;11.10;5.78;;;14.00;85.50;;;;;;5094479;28;20028;-78
2021/08/25 05:15:48;;;;;;;12.77;6.70;;;14.00;85.30;;;;;;5094888;28;20085;-77
2021/08/25 05:18:14;;;;;;;9.82;5.75;;;14.00;85.10;;;;;;5096536;28;20099;-77
2021/08/25 05:20:39;;;;;;;10.15;5.50;;;14.10;85.20;;;;;;5095682;28;20029;-78
2021/08/25 05:23:05;;;;;;;10.73;5.63;;;14.20;85.10;;;;;;5095780;28;20032;-79
2021/08/25 05:25:31;;;;;;;10.38;5.95;;;14.20;84.80;;;;;;5094582;28;20469;-78
2021/08/25 05:27:56;;;;;;;9.52;5.25;;;14.20;84.70;;;;;;5094645;28;20027;-78
2021/08/25 05:30:22;;;;;;;9.32;4.93;;;14.30;84.50;;;;;;5094430;28;20020;-78
2021/08/25 05:32:52;;;;;;;10.10;5.55;;;14.30;84.50;;;;;;5094590;28;20038;-78
2021/08/25 05:35:19;;;;;;;8.93;5.13;;;14.40;84.50;;;;;;5094534;28;20114;-78
2021/08/25 05:37:45;;;;;;;9.68;5.47;;;14.50;83.80;;;;;;5094981;28;20461;-78
2021/08/25 05:40:11;;;;;;;15.07;5.55;;;14.50;83.20;;;;;;5094757;28;20012;-78
2021/08/25 05:42:37;;;;;;;12.88;6.18;;;14.60;82.80;;;;;;5095924;28;20117;-78
2021/08/25 05:45:04;;;;;;;8.80;4.85;;;14.70;82.40;;;;;;5096212;28;20494;-78
2021/08/25 05:47:30;;;;;;;10.20;5.90;;;14.80;82.20;;;;;;5111065;28;20023;-77
2021/08/25 05:49:55;;;;;;;8.13;4.68;;;14.90;82.10;;;;;;5100792;28;20499;-77
2021/08/25 05:52:21;;;;;;;11.57;4.88;;;15.00;82.00;;;;;;5095215;28;20024;-77
2021/08/25 05:54:46;;;;;;;8.88;4.85;;;15.10;82.10;;;;;;5096089;28;20038;-78
2021/08/25 05:57:12;;;;;;;10.45;4.60;;;15.20;82.20;;;;;;5099932;28;20099;-77
2021/08/25 05:59:37;;;;;;;11.13;5.45;;;15.30;81.90;;;;;;5101376;28;20467;-78
2021/08/25 06:02:03;;;;;;;11.48;5.25;;;15.40;82.10;;;;;;5099925;28;20020;-76
2021/08/25 06:04:29;;;;;;;10.07;5.50;;;15.40;82.20;;;;;;5099258;28;20111;-77
2021/08/25 06:06:54;;;;;;;10.20;5.22;;;15.50;82.40;;;;;;5103011;28;20269;-76
2021/08/25 06:09:20;;;;;;;9.35;5.57;;;15.60;82.40;;;;;;5100732;28;20016;-77
2021/08/25 06:11:46;;;;;;;10.57;5.05;;;15.80;82.30;;;;;;5094192;28;20036;-78
2021/08/25 06:14:11;;;;;;;9.13;5.30;;;15.90;81.90;;;;;;5093802;28;20476;-78
2021/08/25 06:16:38;;;;;;;10.43;4.82;;;16.00;81.60;;;;;;5095265;28;20418;-77
2021/08/25 06:19:04;;;;;;;12.02;5.85;;;16.10;81.40;;;;;;5095179;28;20073;-78
2021/08/25 06:21:29;;;;;;;10.88;6.18;;;16.20;81.10;;;;;;5095150;28;20028;-78
2021/08/25 06:23:55;;;;;;;11.15;5.72;;;16.30;81.00;;;;;;5093181;28;20059;-77
2021/08/25 06:26:21;;;;;;;13.85;5.50;;;16.40;80.90;;;;;;5094483;28;20519;-77
2021/08/25 06:28:47;;;;;;;10.70;5.22;;;16.50;80.00;;;;;;5093365;28;20028;-78
2021/08/25 06:31:12;;;;;;;11.93;5.95;;;16.70;80.40;;;;;;5093385;28;20028;-77
2021/08/25 06:33:38;;;;;;;11.20;5.88;;;16.80;79.50;;;;;;5093466;28;20088;-77
2021/08/25 06:36:04;;;;;;;11.23;5.75;;;16.90;78.80;;;;;;5094865;28;20384;-77
2021/08/25 06:38:29;;;;;;;9.40;4.82;;;17.10;77.30;;;;;;5092958;28;20023;-76
2021/08/25 06:40:55;;;;;;;11.52;5.05;;;17.20;75.60;;;;;;5094446;28;20063;-78
2021/08/25 06:43:21;;;;;;;8.75;4.90;;;17.40;76.00;;;;;;5093280;28;20046;-76
2021/08/25 06:45:46;;;;;;;12.18;4.72;;;17.40;75.10;;;;;;5094866;28;20383;-76
2021/08/25 06:48:12;;;;;;;9.35;5.22;;;17.60;74.00;;;;;;5095630;28;20119;-77
2021/08/25 06:50:37;;;;;;;10.18;5.97;;;17.60;73.80;;;;;;5101294;28;20028;-76
2021/08/25 06:53:03;;;;;;;12.38;4.93;;;17.70;73.20;;;;;;5103131;28;20028;-76
2021/08/25 06:55:28;;;;;;;10.40;5.07;;;17.80;72.70;;;;;;5094470;28;20016;-78
2021/08/25 06:57:54;;;;;;;10.20;4.70;;;18.00;72.50;;;;;;5093054;28;20072;-78
2021/08/25 07:00:20;;;;;;;8.80;4.20;;;18.10;72.50;;;;;;5094609;28;20456;-77
2021/08/25 07:02:45;;;;;;;10.35;5.10;;;18.20;72.50;;;;;;5093749;28;20047;-77
2021/08/25 07:05:11;;;;;;;8.65;5.18;;;18.40;71.50;;;;;;5092417;28;20384;-77
2021/08/25 07:07:36;;;;;;;9.70;5.38;;;18.50;71.00;;;;;;5096029;28;20054;-77
2021/08/25 07:10:03;;;;;;;9.90;5.25;;;18.70;72.50;;;;;;5095236;28;20031;-77
2021/08/25 07:12:29;;;;;;;10.68;5.65;;;18.80;72.40;;;;;;5093412;28;20035;-78
2021/08/25 07:14:55;;;;;;;9.88;5.57;;;19.00;72.00;;;;;;5092756;28;20036;-78
2021/08/25 07:17:21;;;;;;;10.25;5.10;;;19.20;71.10;;;;;;5092940;28;20020;-78
2021/08/25 07:19:47;;;;;;;11.02;5.45;;;19.30;70.70;;;;;;5092600;28;20028;-78
2021/08/25 07:22:13;;;;;;;9.98;5.07;;;19.40;70.30;;;;;;5094926;28;20099;-76
2021/08/25 07:24:38;;;;;;;8.65;4.07;;;19.50;69.20;;;;;;5101545;28;20134;-77
2021/08/25 07:27:04;;;;;;;10.23;3.40;;;19.60;67.00;;;;;;5097841;28;20438;-75
2021/08/25 07:29:30;;;;;;;12.70;4.00;;;19.80;67.20;;;;;;5093992;28;20016;-78
2021/08/25 07:31:57;;;;;;;8.80;3.83;;;19.90;67.40;;;;;;5092611;28;20024;-77
2021/08/25 07:34:23;;;;;;;8.55;4.05;;;20.10;66.40;;;;;;5092179;28;20460;-78
2021/08/25 07:36:48;;;;;;;8.00;4.85;;;20.20;66.30;;;;;;5091994;28;20024;-77
2021/08/25 07:39:14;;;;;;;9.82;4.85;;;20.40;65.10;;;;;;5092990;28;20032;-78
2021/08/25 07:41:40;;;;;;;10.32;4.88;;;20.50;64.90;;;;;;5092474;28;20047;-78
2021/08/25 07:44:07;;;;;;;9.25;5.55;;;20.50;65.30;;;;;;5092874;28;20031;-78
2021/08/25 07:46:32;;;;;;;10.63;4.75;;;20.60;65.20;;;;;;5095063;28;20095;-78
2021/08/25 07:49:01;;;;;;;11.70;5.57;;;20.70;65.10;;;;;;5095138;28;20102;-77
2021/08/25 07:51:27;;;;;;;8.07;4.30;;;20.80;63.70;;;;;;5118173;28;20409;-78
2021/08/25 07:53:52;;;;;;;10.82;4.93;;;20.80;64.20;;;;;;5102059;28;20059;-77
2021/08/25 07:56:18;;;;;;;8.68;4.97;;;20.80;63.90;;;;;;5102205;28;20031;-77
2021/08/25 07:58:43;;;;;;;8.20;5.03;;;20.90;63.70;;;;;;5116152;28;20006;-76
2021/08/25 08:01:09;;;;;;;7.72;3.72;;;21.00;63.60;;;;;;5118819;28;20024;-77
2021/08/25 08:03:34;;;;;;;7.72;4.28;;;21.10;63.90;;;;;;5103262;28;20020;-78
2021/08/25 08:06:00;;;;;;;6.25;2.80;;;21.30;64.30;;;;;;5103617;28;20020;-76
2021/08/25 08:08:26;;;;;;;6.18;3.17;;;21.50;64.80;;;;;;5106142;28;20043;-77
2021/08/25 08:10:52;;;;;;;6.20;2.47;;;21.70;63.10;;;;;;5095403;28;20028;-77
2021/08/25 08:13:19;;;;;;;9.32;4.63;;;21.80;62.70;;;;;;5108520;28;20031;-76
2021/08/25 08:15:45;;;;;;;7.65;3.38;;;22.00;61.20;;;;;;5099366;28;20014;-78
2021/08/25 08:18:15;;;;;;;8.05;3.60;;;22.10;60.00;;;;;;5102795;28;20017;-76
2021/08/25 08:20:41;;;;;;;;;;;22.20;60.20;;;;;;5107831;28;20031;-77
2021/08/25 08:23:07;;;;;;;7.25;3.28;;;22.30;57.40;;;;;;5093177;28;19904;-77
2021/08/25 08:25:33;;;;;;;5.78;2.80;;;22.40;59.00;;;;;;5097712;28;20011;-77
2021/08/25 08:27:59;;;;;;;7.57;3.30;;;22.50;57.30;;;;;;5104004;28;20020;-78
2021/08/25 08:30:24;;;;;;;6.38;3.25;;;22.60;56.60;;;;;;5091087;28;20023;-78
2021/08/25 08:32:50;;;;;;;5.50;2.83;;;22.80;57.70;;;;;;5106963;28;20019;-78
2021/08/25 08:35:16;;;;;;;6.43;3.10;;;22.90;56.10;;;;;;5094524;28;20383;-76
2021/08/25 08:37:41;;;;;;;8.80;3.78;;;23.00;56.00;;;;;;5106178;28;20099;-77
2021/08/25 08:40:07;;;;;;;5.78;2.40;;;23.10;55.10;;;;;;5102007;28;20142;-77
2021/08/25 08:42:35;;;;;;;5.85;2.67;;;23.20;57.30;;;;;;5106557;28;20107;-77
2021/08/25 08:45:03;;;;;;;5.47;2.85;;;23.30;59.60;;;;;;5114356;28;20047;-77
2021/08/25 08:47:29;;;;;;;7.55;3.80;;;23.40;58.60;;;;;;5103752;28;20430;-77
2021/08/25 08:49:58;;;;;;;6.05;3.10;;;23.40;58.30;;;;;;5097037;28;20035;-77
2021/08/25 08:52:24;;;;;;;8.02;2.97;;;23.40;54.20;;;;;;5095339;28;20427;-77
2021/08/25 08:54:51;;;;;;;7.30;3.33;;;23.40;53.10;;;;;;5095090;28;20024;-77
2021/08/25 08:57:18;;;;;;;5.88;2.72;;;23.50;53.40;;;;;;5095446;28;20104;-76
2021/08/25 08:59:43;;;;;;;6.25;3.08;;;23.60;55.30;;;;;;5094992;28;20020;-76
2021/08/25 09:02:11;;;;;;;6.55;3.10;;;23.60;53.70;;;;;;5094978;28;20050;-77
2021/08/25 09:04:43;;;;;;;5.30;2.60;;;23.50;51.60;;;;;;5094498;28;20036;-77
2021/08/25 09:07:19;;;;;;;4.05;2.20;;;23.60;56.00;;;;;;5095130;28;20048;-77
2021/08/25 09:09:56;;;;;;;4.95;2.58;;;23.70;58.50;;;;;;5095053;28;20030;-77
2021/08/25 09:12:23;;;;;;;5.55;2.58;;;23.80;60.00;;;;;;5099213;28;20367;-78
2021/08/25 09:14:49;;;;;;;6.53;2.78;;;23.90;61.40;;;;;;5098185;28;20038;-77
2021/08/25 09:17:28;;;;;;;5.20;2.60;;;24.00;59.20;;;;;;5097789;28;20447;-78
2021/08/25 09:20:11;;;;;;;7.45;3.00;;;24.20;55.20;;;;;;5096214;28;20032;-77
2021/08/25 09:22:37;;;;;;;8.48;3.47;;;24.30;51.90;;;;;;5096507;28;20024;-77
2021/08/25 09:25:04;;;;;;;5.38;2.80;;;24.40;53.00;;;;;;5096228;28;20456;-79
2021/08/25 09:27:30;;;;;;;6.53;3.08;;;24.50;52.10;;;;;;5096714;28;20024;-77
2021/08/25 09:29:59;;;;;;;8.50;3.70;;;24.60;50.30;;;;;;5094961;28;20028;-78
2021/08/25 09:32:27;;;;;;;6.00;3.13;;;24.60;48.00;;;;;;5094542;28;20111;-78
2021/08/25 09:34:58;;;;;;;6.60;3.35;;;24.60;50.90;;;;;;5095952;28;20273;-79
2021/08/25 09:37:25;;;;;;;6.60;2.72;;;24.70;49.80;;;;;;5095539;28;20020;-77
2021/08/25 09:39:56;;;;;;;4.75;2.50;;;24.70;51.50;;;;;;5096787;28;20024;-77
2021/08/25 09:42:23;;;;;;;5.28;2.40;;;24.80;60.70;;;;;;5097459;28;20024;-78
2021/08/25 09:45:06;;;;;;;7.63;2.80;;;24.90;57.60;;;;;;5095609;28;20053;-79
2021/08/25 09:47:51;;;;;;;4.28;2.00;;;25.00;52.80;;;;;;5097213;28;20047;-77
2021/08/25 09:50:20;;;;;;;7.63;3.50;;;25.20;62.70;;;;;;5097147;28;20093;-78
2021/08/25 09:52:47;;;;;;;6.80;3.58;;;25.40;55.80;;;;;;5097728;28;20385;-77
2021/08/25 09:55:14;;;;;;;6.30;3.45;;;25.40;51.10;;;;;;5102922;28;20027;-78
2021/08/25 09:57:44;;;;;;;7.07;3.47;;;25.50;47.30;;;;;;5107646;28;20031;-77
2021/08/25 10:00:12;;;;;;;5.82;3.20;;;25.60;48.00;;;;;;5105537;28;20050;-78
2021/08/25 10:02:40;;;;;;;8.30;3.13;;;25.80;55.80;;;;;;5095708;28;20094;-78
2021/08/25 10:05:06;;;;;;;6.72;3.65;;;25.80;51.70;;;;;;5095729;28;20020;-76
2021/08/25 10:07:34;;;;;;;6.47;3.50;;;25.80;55.00;;;;;;5099298;28;20024;-78
2021/08/25 10:09:59;;;;;;;7.57;2.50;;;25.80;59.60;;;;;;5097236;28;20030;-77
2021/08/25 10:12:25;;;;;;;5.97;2.90;;;25.80;51.40;;;;;;5094400;28;20115;-77
2021/08/25 10:14:51;;;;;;;6.50;3.15;;;25.90;48.20;;;;;;5093065;28;20423;-76
2021/08/25 10:17:42;;;;;;;6.00;2.80;;;25.90;47.00;;;;;;5095081;28;20028;-77
2021/08/25 10:20:23;;;;;;;9.50;3.63;;;26.10;48.50;;;;;;5093357;28;20379;-77
2021/08/25 10:22:51;;;;;;;7.55;3.15;;;26.10;49.90;;;;;;5093168;28;20024;-78
2021/08/25 10:25:17;;;;;;;6.10;3.10;;;26.10;45.10;;;;;;5094532;28;20551;-77
2021/08/25 10:28:05;;;;;;;6.22;3.35;;;26.10;43.80;;;;;;5093408;28;20111;-76
2021/08/25 10:30:46;;;;;;;7.63;3.05;;;26.20;44.90;;;;;;5093556;28;20020;-77
2021/08/25 10:33:13;;;;;;;5.38;3.10;;;26.40;50.10;;;;;;5098152;28;20020;-76
2021/08/25 10:35:44;;;;;;;8.48;3.53;;;26.40;46.90;;;;;;5104555;28;20021;-75
2021/08/25 10:38:20;;;;;;;5.85;3.10;;;26.50;58.50;;;;;;5103167;28;20027;-77
2021/08/25 10:40:47;;;;;;;9.20;3.65;;;26.50;52.20;;;;;;5094916;28;20020;-78
2021/08/25 10:43:39;;;;;;;5.22;2.50;;;26.60;46.50;;;;;;5093997;28;20024;-78
2021/08/25 10:46:06;;;;;;;5.72;3.05;;;26.70;53.10;;;;;;5093153;28;20036;-76
2021/08/25 10:48:37;;;;;;;7.75;3.80;;;26.70;53.00;;;;;;5094341;28;20027;-77
2021/08/25 10:51:03;;;;;;;8.18;3.83;;;26.70;47.50;;;;;;5093177;28;20020;-76
2021/08/25 10:53:29;;;;;;;7.22;3.58;;;26.90;57.40;;;;;;5093032;28;20464;-76
2021/08/25 10:56:12;;;;;;;9.43;4.15;;;27.00;53.10;;;;;;5093855;28;20099;-79
2021/08/25 10:59:06;;;;;;;8.23;4.13;;;27.00;45.20;;;;;;5094260;28;20105;-77
2021/08/25 11:01:36;;;;;;;6.78;3.47;;;26.90;46.40;;;;;;5091395;28;20414;-78
2021/08/25 11:04:16;;;;;;;8.63;3.90;;;27.00;47.10;;;;;;5094250;28;20043;-78
2021/08/25 11:06:56;;;;;;;;;;;27.10;46.10;;;;;;5094407;28;20437;-77
2021/08/25 11:09:33;;;;;;;9.38;4.55;;;27.30;59.70;;;;;;5091942;28;19911;-77
2021/08/25 11:12:16;;;;;;;7.72;3.88;;;27.30;44.60;;;;;;5092388;28;20024;-78
2021/08/25 11:14:49;;;;;;;7.78;3.95;;;27.40;62.20;;;;;;5094123;28;20028;-78
2021/08/25 11:17:18;;;;;;;9.73;4.28;;;27.50;50.00;;;;;;5097982;28;20080;-77
2021/08/25 11:19:50;;;;;;;8.15;4.25;;;27.40;60.90;;;;;;5093365;28;20028;-77
2021/08/25 11:22:22;;;;;;;8.20;3.72;;;27.40;59.80;;;;;;5101278;28;20028;-78
2021/08/25 11:24:54;;;;;;;7.50;3.53;;;27.20;53.70;;;;;;5094617;28;20059;-77
2021/08/25 11:27:19;;;;;;;8.02;4.07;;;27.10;54.80;;;;;;5093469;28;20031;-78
2021/08/25 11:30:01;;;;;;;7.70;3.40;;;27.10;55.50;;;;;;5092148;28;20032;-77
2021/08/25 11:32:27;;;;;;;9.07;3.53;;;26.90;55.50;;;;;;5092320;28;20035;-77
2021/08/25 11:34:57;;;;;;;6.28;3.28;;;26.70;58.10;;;;;;5093423;28;20107;-78
2021/08/25 11:37:22;;;;;;;8.30;4.88;;;26.50;60.80;;;;;;5092196;28;20452;-78
2021/08/25 11:40:04;;;;;;;7.82;3.75;;;26.30;57.80;;;;;;5091864;28;20031;-77
2021/08/25 11:42:34;;;;;;;8.70;3.97;;;26.50;58.10;;;;;;5093577;28;20103;-77
2021/08/25 11:45:01;;;;;;;6.03;3.10;;;26.80;50.20;;;;;;5093238;28;20032;-78
2021/08/25 11:47:27;;;;;;;7.80;4.07;;;27.00;60.40;;;;;;5094411;28;20027;-77
2021/08/25 11:49:55;;;;;;;8.65;4.38;;;27.20;50.60;;;;;;5095932;28;20058;-77
2021/08/25 11:52:31;;;;;;;7.00;3.78;;;27.30;47.30;;;;;;5099365;28;20505;-77
2021/08/25 11:55:01;;;;;;;7.28;3.70;;;27.40;46.10;;;;;;5098694;28;20058;-78
2021/08/25 11:57:47;;;;;;;6.45;3.88;;;27.60;55.10;;;;;;5098111;28;20020;-77
2021/08/25 12:00:15;;;;;;;9.27;4.63;;;27.80;56.20;;;;;;5099510;28;20420;-78
2021/08/25 12:02:55;;;;;;;7.68;2.90;;;27.80;46.10;;;;;;5109472;28;20472;-78
2021/08/25 12:05:35;;;;;;;6.70;3.17;;;27.80;58.10;;;;;;5093339;28;20036;-79
2021/08/25 12:08:12;;;;;;;9.60;4.40;;;27.90;56.60;;;;;;5091544;28;20020;-78
2021/08/25 12:10:46;;;;;;;6.72;3.83;;;27.90;47.70;;;;;;5091649;28;20369;-78
2021/08/25 12:13:29;;;;;;;7.05;3.75;;;28.10;48.40;;;;;;5091549;28;20097;-78
2021/08/25 12:15:56;;;;;;;5.72;2.90;;;28.00;42.90;;;;;;5092543;28;20020;-77
2021/08/25 12:18:24;;;;;;;7.43;3.83;;;27.90;57.30;;;;;;5091348;28;20016;-76
2021/08/25 12:20:52;;;;;;;7.75;4.20;;;27.90;44.10;;;;;;5092689;28;20028;-76
2021/08/25 12:23:23;;;;;;;8.57;4.82;;;27.90;45.30;;;;;;5091663;28;20051;-75
2021/08/25 12:25:55;;;;;;;6.35;3.40;;;27.90;44.30;;;;;;5101682;28;20032;-76
2021/08/25 12:28:38;;;;;;;6.55;2.90;;;28.00;46.10;;;;;;5109392;28;20024;-76
2021/08/25 12:31:15;;;;;;;8.20;4.18;;;28.10;52.40;;;;;;5098622;28;20073;-75
2021/08/25 12:33:41;;;;;;;5.57;3.03;;;28.00;43.60;;;;;;5092111;28;20020;-77
2021/08/25 12:36:29;;;;;;;6.63;3.08;;;28.00;51.10;;;;;;5091193;28;20020;-77
2021/08/25 12:39:04;;;;;;;12.95;4.63;;;28.00;54.10;;;;;;5091326;28;20052;-77
2021/08/25 12:41:31;;;;;;;5.20;2.28;;;27.90;44.30;;;;;;5091524;28;20058;-77
2021/08/25 12:43:57;;;;;;;5.78;2.72;;;27.70;59.30;;;;;;5092049;28;20286;-77
2021/08/25 12:46:23;;;;;;;5.72;2.97;;;27.60;59.30;;;;;;5091411;28;20295;-76